KCKN

Crookston Municipal Kirkwood Field Airport

Crookston, Minnesota, USA
METAR KCKN 210355Z AUTO 36006KT 10SM CLR 14/09 A3015 RMK AO2
Observed Flight Rules
Aug-21 @ 03:55 UTC (17 minutes ago) Visual Flight Rules
Wind Visibility Clouds
360° at 6 knots 10 miles
  • Clear skies
Temperatures Readings
Current 14°C / 57°F
Dewpoint 9°C / 48°F
Humidity 72%
Altimeter 30.15" Hg
Pressure 1021 hPa
Elevation 273
METAR KCKN 210355Z AUTO 36006KT 10SM CLR 14/09 A3015 RMK AO2
Observed Flight Rules
Aug-21 @ 03:55 UTC
(17 minutes ago)
VFR
Wind Visibility
360° at 6 knots 10 miles
Clouds
  • Clear skies
Temperature Dewpoint
14°C / 57°F 9°C / 48°F
Humidity Altimeter Pressure
72% 30.15" Hg 1021 hPa